Glenhayes, West Virginia
Current Conditions -  °F | °C
As of 10:35 PM on Monday 22 Dec 2014 (Local Time) from KSJS Reporting Station
Clear Clear  
Wind Chill: 51°   Ceiling: Unl
Heat Index: 51°   Visibility: 10mi
Dew Point: 40°   Wind: 7mph
Humidity: 66%   Direction: 120°ESE
Pressure: 29.82"   Gusts: NA
Location:  38.01°N, 82.52°W
Report Text: KSJS 230335Z AUTO 12006KT 10SM CLR 10/04 A2982 RMK AO2 T01040042
Loading
Personal Weather Stations






























Interactive Weather Map New forecast layout! Learn more

10-Day Weather Forecast

Advertisements
Track Severe Weather on mobile